Hwange National Park, Zimbabwe
Current Conditions -  °F | °C
As of 10:00 AM on Thursday 23 Oct 2014 (Local Time) from FBFT Reporting Station
Clear Clear  
Wind Chill: 84°   Ceiling: Unl
Heat Index: 84°   Visibility: 6mi
Dew Point: 48°   Wind: 8mph
Humidity: 28%   Direction: 260°W
Pressure: 30.09"   Gusts: NA
Location:  18.63°S, 27.03°E
Report Text: FBFT 230800Z 26007KT CAVOK 29/09 Q1019
Loading
Personal Weather Stations






























Interactive Weather Map
Tropical Storm Tracking
New forecast layout! Learn more

10-Day Weather Forecast

Advertisements
Track Severe Weather on mobile